createdAt,value
2018-09-10T00:00:38.782Z,98074.08
2018-09-10T00:03:07.318Z,98074.08
2018-09-10T00:05:35.912Z,98078.80
2018-09-10T00:08:04.474Z,98080.94
2018-09-10T00:10:33.059Z,98079.20
2018-09-10T00:13:01.635Z,98081.77
2018-09-10T00:15:30.188Z,98077.09
2018-09-10T00:17:58.774Z,98076.19
2018-09-10T00:20:27.410Z,98076.64
2018-09-10T00:22:55.991Z,98075.36
2018-09-10T00:25:24.579Z,98077.04
2018-09-10T00:27:53.089Z,98066.80
2018-09-10T00:30:21.658Z,98070.64
2018-09-10T00:32:50.295Z,98067.63
2018-09-10T00:35:19.506Z,98065.95
2018-09-10T00:37:48.040Z,98070.64
2018-09-10T00:40:16.668Z,98072.80
2018-09-10T00:42:45.281Z,98071.13
2018-09-10T00:45:13.875Z,98075.77
2018-09-10T00:47:42.500Z,98074.91
2018-09-10T00:50:11.130Z,98073.20
2018-09-10T00:52:40.567Z,98074.08
2018-09-10T00:55:09.174Z,98070.64
2018-09-10T00:57:37.705Z,98061.68
2018-09-10T01:00:06.531Z,98067.63
2018-09-10T01:02:35.103Z,98061.68
2018-09-10T01:05:03.651Z,98062.50
2018-09-10T01:07:32.300Z,98071.07
2018-09-10T01:10:00.867Z,98065.95
2018-09-10T01:12:29.483Z,98064.23
2018-09-10T01:14:58.736Z,98066.80
2018-09-10T01:17:27.337Z,98057.38
2018-09-10T01:19:56.139Z,98063.39
2018-09-10T01:22:24.655Z,98071.07
2018-09-10T01:24:53.181Z,98074.48
2018-09-10T01:27:21.733Z,98062.50
2018-09-10T01:29:50.276Z,98074.91
2018-09-10T01:32:18.843Z,98073.63
2018-09-10T01:34:52.491Z,98048.05
2018-09-10T01:37:21.030Z,98069.36
2018-09-10T01:39:49.514Z,98066.40
2018-09-10T01:42:18.002Z,98078.75
2018-09-10T01:44:46.497Z,98078.75
2018-09-10T01:47:15.012Z,98088.56
2018-09-10T01:49:43.538Z,98086.88
2018-09-10T01:52:12.103Z,98087.28
2018-09-10T01:54:40.609Z,98091.55
2018-09-10T01:57:09.194Z,98084.67
2018-09-10T01:59:37.743Z,98088.11
2018-09-10T02:02:06.446Z,98078.70
2018-09-10T02:04:34.953Z,98077.87
2018-09-10T02:07:03.453Z,98082.98
2018-09-10T02:09:32.042Z,98082.54
2018-09-10T02:12:00.523Z,98080.83
2018-09-10T02:14:29.014Z,98076.14
2018-09-10T02:16:57.514Z,98074.86
2018-09-10T02:19:26.017Z,98074.86
2018-09-10T02:21:54.506Z,98074.42
2018-09-10T02:24:23.010Z,98074.42
2018-09-10T02:26:51.513Z,98064.62
2018-09-10T02:29:20.191Z,98065.47
2018-09-10T02:31:48.717Z,98064.62
2018-09-10T02:34:17.211Z,98063.34
2018-09-10T02:36:45.762Z,98063.34
2018-09-10T02:39:14.282Z,98048.38
2018-09-10T02:41:43.765Z,98044.48
2018-09-10T02:44:13.484Z,98045.41
2018-09-10T02:46:41.975Z,98047.48
2018-09-10T02:49:10.598Z,98050.93
2018-09-10T02:51:39.102Z,98047.97
2018-09-10T02:54:07.626Z,98045.81
2018-09-10T02:56:36.869Z,98045.81
2018-09-10T02:59:05.505Z,98049.65
2018-09-10T03:01:34.621Z,98045.81
2018-09-10T03:04:03.106Z,98056.94
2018-09-10T03:06:31.691Z,98052.21
2018-09-10T03:09:00.158Z,98053.48
2018-09-10T03:11:28.720Z,98052.61
2018-09-10T03:13:57.209Z,98060.77
2018-09-10T03:16:25.816Z,98056.05
2018-09-10T03:18:54.322Z,98062.05
2018-09-10T03:21:22.824Z,98059.49
2018-09-10T03:23:51.410Z,98062.45
2018-09-10T03:26:19.918Z,98057.38
2018-09-10T03:28:48.454Z,98059.95
2018-09-10T03:31:16.987Z,98060.00
2018-09-10T03:33:45.594Z,98058.61
2018-09-10T03:36:14.050Z,98056.45
2018-09-10T03:38:42.686Z,98059.01
2018-09-10T03:41:11.176Z,98064.13
2018-09-10T03:43:39.657Z,98061.52
2018-09-10T03:46:08.223Z,98067.52
2018-09-10T03:48:36.758Z,98060.72
2018-09-10T03:51:05.271Z,98066.23
2018-09-10T03:53:33.871Z,98069.20
2018-09-10T03:56:02.408Z,97909.89
2018-09-10T03:58:31.009Z,98065.36
2018-09-10T04:00:59.502Z,98076.48
2018-09-10T04:03:28.027Z,98070.08
2018-09-10T04:05:56.624Z,98075.20
2018-09-10T04:08:25.146Z,98081.60
2018-09-10T04:10:53.651Z,98083.77
2018-09-10T04:13:22.162Z,98087.13
2018-09-10T04:15:50.966Z,98091.84
2018-09-10T04:18:19.564Z,98092.24
2018-09-10T04:20:48.114Z,98101.63
2018-09-10T04:23:16.653Z,98101.20
2018-09-10T04:25:45.194Z,98102.48
2018-09-10T04:28:13.690Z,98099.53
2018-09-10T04:30:42.274Z,98093.13
2018-09-10T04:33:10.810Z,98102.09
2018-09-10T04:35:41.426Z,98102.54
2018-09-10T04:38:10.058Z,98111.10
2018-09-10T04:40:38.536Z,98105.09
2018-09-10T04:43:07.082Z,98108.54
2018-09-10T04:45:35.614Z,98105.93
2018-09-10T04:48:04.163Z,98103.37
2018-09-10T04:50:32.751Z,98107.27
2018-09-10T04:53:01.338Z,98103.42
2018-09-10T04:55:29.953Z,98108.94
2018-09-10T04:57:58.751Z,98102.97
2018-09-10T05:00:27.276Z,98100.80
2018-09-10T05:02:55.893Z,98102.48
2018-09-10T05:05:24.489Z,98106.75
2018-09-10T05:07:53.019Z,98109.77
2018-09-10T05:10:21.512Z,98110.16
2018-09-10T05:12:50.077Z,98116.56
2018-09-10T05:15:18.624Z,98120.02
2018-09-10T05:17:47.147Z,98120.41
2018-09-10T05:20:15.722Z,98123.85
2018-09-10T05:22:44.210Z,98130.65
2018-09-10T05:25:12.715Z,98127.64
2018-09-10T05:27:41.286Z,98126.36
2018-09-10T05:30:09.819Z,98136.20
2018-09-10T05:32:38.333Z,98137.48
2018-09-10T05:35:06.841Z,98138.77
2018-09-10T05:37:35.336Z,98147.72
2018-09-10T05:40:04.765Z,98143.40
2018-09-10T05:42:33.247Z,98147.72
2018-09-10T05:45:01.870Z,98151.91
2018-09-10T05:47:30.484Z,98160.04
2018-09-10T05:49:58.950Z,98162.20
2018-09-10T05:52:27.489Z,98163.87
2018-09-10T05:54:56.030Z,98157.86
2018-09-10T05:57:24.561Z,98162.97
2018-09-10T05:59:53.087Z,98164.20
2018-09-10T06:02:21.631Z,98170.59
2018-09-10T06:04:50.084Z,98168.83
2018-09-10T06:07:18.667Z,98172.22
2018-09-10T06:09:47.178Z,98167.05
2018-09-10T06:12:15.690Z,98167.98
2018-09-10T06:14:44.210Z,98165.81
2018-09-10T06:17:12.739Z,98165.42
2018-09-10T06:19:41.249Z,98167.09
2018-09-10T06:22:09.776Z,98159.88
2018-09-10T06:24:38.291Z,98159.88
2018-09-10T06:27:06.808Z,98174.84
2018-09-10T06:29:35.306Z,98173.50
2018-09-10T06:32:03.783Z,98178.28
2018-09-10T06:34:32.287Z,98181.69
2018-09-10T06:37:00.841Z,98177.39
2018-09-10T06:39:29.295Z,98174.01
2018-09-10T06:41:57.877Z,98164.20
2018-09-10T06:44:26.515Z,98163.77
2018-09-10T06:46:55.159Z,98161.20
2018-09-10T06:49:23.706Z,98159.19
2018-09-10T06:51:52.318Z,98162.15
2018-09-10T06:54:20.868Z,98155.41
2018-09-10T06:56:49.384Z,98161.38
2018-09-10T06:59:18.018Z,98164.31
2018-09-10T07:01:46.605Z,98176.12
2018-09-10T07:04:15.210Z,98173.45
2018-09-10T07:06:43.783Z,98171.16
2018-09-10T07:09:12.386Z,98178.22
2018-09-10T07:11:41.062Z,98175.66
2018-09-10T07:16:37.359Z,98177.88
2018-09-10T07:19:05.976Z,98184.28
2018-09-10T07:21:34.523Z,98183.84
2018-09-10T07:24:03.939Z,98187.69
2018-09-10T07:26:32.536Z,98186.02
2018-09-10T07:29:01.095Z,98198.42
2018-09-10T07:31:29.729Z,98195.03
2018-09-10T07:33:58.361Z,98189.91
2018-09-10T07:36:27.051Z,98191.25
2018-09-10T07:38:56.271Z,98196.03
2018-09-10T07:41:25.128Z,98201.61
2018-09-10T07:43:53.943Z,98203.39
2018-09-10T07:46:23.235Z,98202.17
2018-09-10T07:48:52.116Z,98201.38
2018-09-10T07:51:20.944Z,98197.11
2018-09-10T07:53:49.618Z,98207.34
2018-09-10T07:56:19.285Z,98208.69
2018-09-10T07:58:48.054Z,98209.97
2018-09-10T08:01:17.110Z,98207.41
2018-09-10T08:03:45.906Z,98207.47
2018-09-10T08:06:14.715Z,98204.51
2018-09-10T08:08:43.596Z,98204.11
2018-09-10T08:11:12.575Z,98208.80
2018-09-10T08:13:41.572Z,98211.42
2018-09-10T08:16:10.448Z,98216.14
2018-09-10T08:18:39.118Z,98209.29
2018-09-10T08:21:07.668Z,98204.22
2018-09-10T08:23:36.404Z,98201.66
2018-09-10T08:26:05.361Z,98203.40
2018-09-10T08:28:33.919Z,98203.00
2018-09-10T08:31:02.595Z,98205.13
2018-09-10T08:33:31.198Z,98207.30
2018-09-10T08:35:59.830Z,98214.52
2018-09-10T08:38:28.426Z,98215.86
2018-09-10T08:40:56.985Z,98220.55
2018-09-10T08:43:25.549Z,98220.98
2018-09-10T08:45:54.060Z,98215.91
2018-09-10T08:48:22.707Z,98211.19
2018-09-10T08:50:51.274Z,98213.75
2018-09-10T08:53:19.825Z,98207.34
2018-09-10T08:55:48.560Z,98211.19
2018-09-10T08:58:17.034Z,98205.84
2018-09-10T09:00:45.624Z,98202.40
2018-09-10T09:03:14.196Z,98200.29
2018-09-10T09:05:42.790Z,98185.30
2018-09-10T09:08:11.371Z,98182.73
2018-09-10T09:10:39.943Z,98180.63
2018-09-10T09:13:08.544Z,98168.70
2018-09-10T09:15:37.060Z,98171.66
2018-09-10T09:18:05.738Z,98179.35
2018-09-10T09:20:34.298Z,98184.87
2018-09-10T09:23:02.963Z,98197.67
2018-09-10T09:25:31.693Z,98200.23
2018-09-10T09:28:00.409Z,98202.80
2018-09-10T09:30:29.249Z,98204.51
2018-09-10T09:32:57.819Z,98199.84
2018-09-10T09:35:31.673Z,98202.40
2018-09-10T09:38:05.594Z,98189.59
2018-09-10T09:40:39.474Z,98193.03
2018-09-10T09:44:10.887Z,98183.59
2018-09-10T09:46:39.599Z,98189.59
2018-09-10T09:49:08.321Z,98194.72
2018-09-10T09:51:36.986Z,98192.16
2018-09-10T09:54:05.644Z,98192.98
2018-09-10T09:56:34.432Z,98187.86
2018-09-10T09:59:03.271Z,98189.54
2018-09-10T10:01:37.122Z,98184.02
2018-09-10T10:04:08.803Z,98180.57
2018-09-10T10:06:39.919Z,98179.75
2018-09-10T10:09:12.695Z,98178.89
2018-09-10T10:11:41.820Z,98173.34
2018-09-10T10:14:11.211Z,98177.19
2018-09-10T10:16:40.408Z,98181.91
2018-09-10T10:19:09.221Z,98184.87
2018-09-10T10:21:37.983Z,98170.78
2018-09-10T10:24:06.808Z,98165.72
2018-09-10T10:26:35.439Z,98163.98
2018-09-10T10:29:04.172Z,98163.16
2018-09-10T10:31:32.918Z,98161.88
2018-09-10T10:34:01.832Z,98157.18
2018-09-10T10:36:30.676Z,98149.89
2018-09-10T10:38:59.496Z,98150.84
2018-09-10T10:41:28.681Z,98152.06
2018-09-10T10:43:57.324Z,98149.95
2018-09-10T10:46:27.207Z,98152.91
2018-09-10T10:48:56.034Z,98145.71
2018-09-10T10:51:25.538Z,98146.50
2018-09-10T10:53:54.257Z,98157.69
2018-09-10T10:56:22.860Z,98147.84
2018-09-10T10:58:52.028Z,98156.80
2018-09-10T11:01:21.353Z,98152.57
2018-09-10T11:03:50.160Z,98151.28
2018-09-10T11:06:18.783Z,98143.16
2018-09-10T11:08:47.613Z,98139.77
2018-09-10T11:11:16.187Z,98138.88
2018-09-10T11:13:44.807Z,98140.16
2018-09-10T11:16:13.416Z,98130.80
2018-09-10T11:18:42.387Z,98129.91
2018-09-10T11:21:11.071Z,98132.08
2018-09-10T11:23:39.852Z,98132.48
2018-09-10T11:26:08.461Z,98126.95
2018-09-10T11:28:37.440Z,98125.67
2018-09-10T11:31:06.592Z,98121.83
2018-09-10T11:33:35.324Z,98121.38
2018-09-10T11:36:04.125Z,98122.28
2018-09-10T11:38:32.792Z,98127.95
2018-09-10T11:41:01.391Z,98128.80
2018-09-10T11:43:30.092Z,98130.02
2018-09-10T11:45:58.587Z,98122.77
2018-09-10T11:48:27.921Z,98123.56
2018-09-10T11:50:57.295Z,98127.84
2018-09-10T11:53:25.833Z,98126.50
2018-09-10T11:55:54.377Z,98127.35
2018-09-10T11:58:23.593Z,98126.45
2018-09-10T12:00:52.239Z,98126.02
2018-09-10T12:03:20.727Z,98130.29
2018-09-10T12:05:49.219Z,98137.14
2018-09-10T12:08:17.731Z,98133.70
2018-09-10T12:10:46.190Z,98133.76
2018-09-10T12:13:14.790Z,98128.58
2018-09-10T12:15:43.327Z,98140.16
2018-09-10T12:18:11.815Z,98133.36
2018-09-10T12:20:40.287Z,98126.13
2018-09-10T12:23:08.775Z,98124.45
2018-09-10T12:25:37.729Z,98124.45
2018-09-10T12:28:06.542Z,98119.72
2018-09-10T12:30:35.079Z,98117.16
2018-09-10T12:33:03.597Z,98124.84
2018-09-10T12:35:32.060Z,98118.05
2018-09-10T12:38:00.543Z,98114.20
2018-09-10T12:40:29.062Z,98114.66
2018-09-10T12:42:57.621Z,98113.80
2018-09-10T12:45:26.094Z,98118.93
2018-09-10T12:47:54.574Z,98117.16
2018-09-10T12:50:23.070Z,98115.48
2018-09-10T12:52:51.557Z,98112.98
2018-09-10T12:55:20.022Z,98116.37
2018-09-10T12:57:48.477Z,98116.42
2018-09-10T13:00:16.986Z,98117.27
2018-09-10T13:02:45.514Z,98112.20
2018-09-10T13:05:14.173Z,98113.53
2018-09-10T13:07:42.694Z,98113.14
2018-09-10T13:10:11.306Z,98104.23
2018-09-10T13:12:39.792Z,98104.63
2018-09-10T13:15:08.293Z,98102.95
2018-09-10T13:17:36.766Z,98103.83
2018-09-10T13:20:05.315Z,98100.38
2018-09-10T13:22:33.816Z,98098.22
2018-09-10T13:25:02.300Z,98098.70
2018-09-10T13:27:30.787Z,98101.72
2018-09-10T13:29:59.263Z,98099.16
2018-09-10T13:32:27.754Z,98089.30
2018-09-10T13:34:56.243Z,98087.23
2018-09-10T13:37:24.753Z,98088.52
2018-09-10T13:39:53.307Z,98087.63
2018-09-10T13:42:21.812Z,98076.19
2018-09-10T13:44:50.415Z,98079.20
2018-09-10T13:47:18.900Z,98070.28
2018-09-10T13:49:47.482Z,98079.73
2018-09-10T13:52:15.995Z,98076.69
2018-09-10T13:54:44.529Z,98074.13
2018-09-10T13:57:13.536Z,98068.61
2018-09-10T13:59:42.084Z,98063.09
2018-09-10T14:02:10.559Z,98061.38
2018-09-10T14:04:39.038Z,98058.81
2018-09-10T14:07:07.528Z,98063.53
2018-09-10T14:09:36.000Z,98062.66
2018-09-10T14:12:04.483Z,98066.55
2018-09-10T14:14:32.960Z,98067.42
2018-09-10T14:17:01.451Z,98066.59
2018-09-10T14:19:29.982Z,98061.47
2018-09-10T14:21:58.451Z,98063.23
2018-09-10T14:24:26.932Z,98059.39
2018-09-10T14:26:55.450Z,98062.86
2018-09-10T14:29:23.931Z,98068.91
2018-09-10T14:31:52.460Z,98070.20
2018-09-10T14:34:20.948Z,98060.94
2018-09-10T14:36:49.482Z,98065.27
2018-09-10T14:39:17.959Z,98068.19
2018-09-10T14:41:46.474Z,98068.23
2018-09-10T14:44:15.004Z,98068.67
2018-09-10T14:46:43.495Z,98070.41
2018-09-10T14:49:12.058Z,98068.23
2018-09-10T14:51:40.547Z,98067.84
2018-09-10T14:54:09.176Z,98071.63
2018-09-10T14:56:37.646Z,98069.95
2018-09-10T14:59:06.242Z,98068.67
2018-09-10T15:01:34.775Z,98073.46
2018-09-10T15:04:03.480Z,98076.95
2018-09-10T15:06:31.949Z,98069.67
2018-09-10T15:09:00.452Z,98065.42
2018-09-10T15:11:28.953Z,98062.03
2018-09-10T15:13:57.428Z,98060.75
2018-09-10T15:16:25.903Z,98060.75
2018-09-10T15:18:54.447Z,98058.63
2018-09-10T15:21:22.890Z,98050.89
2018-09-10T15:23:51.483Z,98051.73
2018-09-10T15:26:19.955Z,98056.81
2018-09-10T15:28:48.433Z,98053.45
2018-09-10T15:31:16.923Z,98055.53
2018-09-10T15:33:45.387Z,98055.96
2018-09-10T15:36:13.914Z,98059.38
2018-09-10T15:38:42.409Z,98053.34
2018-09-10T15:41:10.918Z,98055.48
2018-09-10T15:43:39.385Z,98056.66
2018-09-10T15:46:07.883Z,98051.08
2018-09-10T15:48:36.376Z,98053.24
2018-09-10T15:51:04.872Z,98057.48
2018-09-10T15:53:33.430Z,98051.91
2018-09-10T15:56:01.867Z,98057.89
2018-09-10T15:58:30.358Z,98059.65
2018-09-10T16:00:58.841Z,98061.73
2018-09-10T16:03:27.327Z,98060.00
2018-09-10T16:05:55.786Z,98056.98
2018-09-10T16:08:24.263Z,98055.70
2018-09-10T16:10:52.845Z,98059.55
2018-09-10T16:13:21.315Z,98065.95
2018-09-10T16:15:49.967Z,98068.47
2018-09-10T16:18:18.443Z,98071.48
2018-09-10T16:20:46.911Z,98068.03
2018-09-10T16:23:15.380Z,98068.47
2018-09-10T16:25:43.847Z,98069.31
2018-09-10T16:28:12.327Z,98068.03
2018-09-10T16:30:40.800Z,98072.31
2018-09-10T16:33:09.334Z,98071.03
2018-09-10T16:35:37.807Z,98074.39
2018-09-10T16:38:06.314Z,98077.83
2018-09-10T16:40:34.785Z,98077.78
2018-09-10T16:43:03.291Z,98080.73
2018-09-10T16:45:31.767Z,98075.22
2018-09-10T16:48:00.235Z,98078.66
2018-09-10T16:50:28.966Z,98076.90
2018-09-10T16:52:57.422Z,98078.23
2018-09-10T16:55:25.878Z,98078.18
2018-09-10T16:57:54.356Z,98072.20
2018-09-10T17:00:23.013Z,98063.23
2018-09-10T17:02:51.531Z,98068.36
2018-09-10T17:05:20.008Z,98067.48
2018-09-10T17:07:48.607Z,98072.20
2018-09-10T17:10:17.127Z,98070.44
2018-09-10T17:12:45.646Z,98067.88
2018-09-10T17:15:14.109Z,98067.88
2018-09-10T17:17:42.576Z,98058.06
2018-09-10T17:20:11.205Z,98064.87
2018-09-10T17:22:39.764Z,98071.72
2018-09-10T17:25:08.199Z,98070.44
2018-09-10T17:27:36.680Z,98067.83
2018-09-10T17:30:05.186Z,98065.27
2018-09-10T17:32:33.674Z,98067.83
2018-09-10T17:35:02.236Z,98066.15
2018-09-10T17:37:30.718Z,98067.42
2018-09-10T17:39:59.189Z,98070.88
2018-09-10T17:42:27.695Z,98069.11
2018-09-10T17:44:56.867Z,98069.16
2018-09-10T17:47:25.330Z,98078.61
2018-09-10T17:49:53.844Z,98073.94
2018-09-10T17:52:22.341Z,98078.66
2018-09-10T17:54:50.820Z,98076.55
2018-09-10T17:57:19.300Z,98078.72
2018-09-10T17:59:47.800Z,98084.69
2018-09-10T18:02:16.290Z,98086.85
2018-09-10T18:04:44.784Z,98081.27
2018-09-10T18:07:13.320Z,98085.57
2018-09-10T18:09:41.898Z,98090.69
2018-09-10T18:12:10.369Z,98090.69
2018-09-10T18:14:38.901Z,98088.58
2018-09-10T18:17:07.382Z,98089.41
2018-09-10T18:19:35.895Z,98096.22
2018-09-10T18:22:04.394Z,98100.06
2018-09-10T18:24:32.899Z,98097.93
2018-09-10T18:27:01.390Z,98106.06
2018-09-10T18:29:29.878Z,98107.75
2018-09-10T18:31:58.377Z,98106.02
2018-09-10T18:34:26.891Z,98102.63
2018-09-10T18:36:55.378Z,98103.90
2018-09-10T18:39:23.879Z,98110.30
2018-09-10T18:41:52.363Z,98113.75
2018-09-10T18:44:20.829Z,98111.59
2018-09-10T18:46:49.304Z,98110.73
2018-09-10T18:49:17.917Z,98112.42
2018-09-10T18:51:46.428Z,98108.97
2018-09-10T18:54:14.906Z,98106.02
2018-09-10T18:56:43.391Z,98106.02
2018-09-10T18:59:11.919Z,98108.17
2018-09-10T19:01:40.502Z,98109.02
2018-09-10T19:04:08.887Z,98104.73
2018-09-10T19:06:37.401Z,98098.72
2018-09-10T19:09:07.947Z,98102.17
2018-09-10T19:11:36.629Z,98096.99
2018-09-10T19:14:05.141Z,98099.55
2018-09-10T19:16:33.735Z,98101.72
2018-09-10T19:19:02.287Z,98102.12
2018-09-10T19:21:30.836Z,98102.52
2018-09-10T19:23:59.483Z,98108.08
2018-09-10T19:26:27.970Z,98106.36
2018-09-10T19:28:56.532Z,98106.36
2018-09-10T19:31:25.521Z,98104.23
2018-09-10T19:33:54.400Z,98115.27
2018-09-10T19:36:22.966Z,98113.20
2018-09-10T19:38:51.474Z,98118.32
2018-09-10T19:41:20.041Z,98122.16
2018-09-10T19:43:48.680Z,98130.25
2018-09-10T19:46:17.233Z,98127.69
2018-09-10T19:48:45.791Z,98125.95
2018-09-10T19:51:14.304Z,98124.19
2018-09-10T19:53:42.846Z,98120.34
2018-09-10T19:56:11.413Z,98122.51
2018-09-10T19:58:39.939Z,98136.20
2018-09-10T20:01:08.450Z,98131.02
2018-09-10T20:03:37.100Z,98137.42
2018-09-10T20:06:05.586Z,98146.39
2018-09-10T20:08:34.082Z,98146.80
2018-09-10T20:11:02.592Z,98152.80
2018-09-10T20:13:31.187Z,98152.37
2018-09-10T20:15:59.711Z,98159.50
2018-09-10T20:18:28.215Z,98157.44
2018-09-10T20:20:56.903Z,98160.88
2018-09-10T20:23:25.480Z,98170.25
2018-09-10T20:25:54.072Z,98172.02
2018-09-10T20:28:22.576Z,98173.30
2018-09-10T20:30:51.176Z,98169.73
2018-09-10T20:33:20.471Z,98166.41
2018-09-10T20:35:49.485Z,98164.33
2018-09-10T20:38:18.063Z,98168.22
2018-09-10T20:40:46.577Z,98165.66
2018-09-10T20:43:15.180Z,98167.80
2018-09-10T20:45:44.864Z,98169.50
2018-09-10T20:48:13.422Z,98172.36
2018-09-10T20:50:42.106Z,98166.78
2018-09-10T20:53:10.636Z,98174.47
2018-09-10T20:55:39.345Z,98171.91
2018-09-10T20:58:08.115Z,98167.58
2018-09-10T21:00:36.654Z,98180.39
2018-09-10T21:03:05.239Z,98173.58
2018-09-10T21:05:33.742Z,98168.86
2018-09-10T21:08:02.298Z,98161.60
2018-09-10T21:10:30.854Z,98164.16
2018-09-10T21:12:59.478Z,98164.16
2018-09-10T21:15:28.945Z,98170.08
2018-09-10T21:19:00.875Z,98173.98
2018-09-10T21:21:29.400Z,98176.09
2018-09-10T21:23:58.340Z,98178.25
2018-09-10T21:26:27.702Z,98170.97
2018-09-10T21:28:56.348Z,98179.05
2018-09-10T21:31:25.022Z,98179.53
2018-09-10T21:33:53.544Z,98182.01
2018-09-10T21:36:22.158Z,98187.22
2018-09-10T21:38:50.693Z,97831.00
2018-09-10T21:41:19.295Z,98182.89
2018-09-10T21:43:47.924Z,98182.89
2018-09-10T21:46:16.487Z,98179.94
2018-09-10T21:48:45.002Z,98180.33
2018-09-10T21:51:13.524Z,98179.05
2018-09-10T21:53:42.160Z,98181.13
2018-09-10T21:56:10.699Z,98182.01
2018-09-10T21:58:39.262Z,98176.48
2018-09-10T22:01:07.769Z,98173.44
2018-09-10T22:03:36.395Z,98176.00
2018-09-10T22:06:04.977Z,98173.04
2018-09-10T22:08:33.494Z,98171.77
2018-09-10T22:11:08.834Z,98179.45
2018-09-10T22:13:37.535Z,98174.33
2018-09-10T22:16:06.128Z,98176.48
2018-09-10T22:18:34.656Z,98174.72
2018-09-10T22:21:03.516Z,98174.72
2018-09-10T22:23:32.077Z,98172.56
2018-09-10T22:26:00.603Z,98176.40
2018-09-10T22:28:29.129Z,98166.98
2018-09-10T22:30:58.322Z,98166.16
2018-09-10T22:34:55.967Z,98159.70
2018-09-10T22:37:24.520Z,98160.18
2018-09-10T22:39:53.052Z,98158.41
2018-09-10T22:42:21.603Z,98160.12
2018-09-10T22:44:50.157Z,98144.88
2018-09-10T22:47:18.702Z,98160.12
2018-09-10T22:49:47.303Z,98165.25
2018-09-10T22:52:15.836Z,98168.61
2018-09-10T22:54:44.396Z,98171.59
2018-09-10T22:57:12.903Z,98168.61
2018-09-10T22:59:41.443Z,98171.22
2018-09-10T23:02:10.036Z,98173.73
2018-09-10T23:04:38.565Z,98173.27
2018-09-10T23:07:07.187Z,98175.01
2018-09-10T23:09:35.741Z,98172.00
2018-09-10T23:12:04.324Z,98174.16
2018-09-10T23:14:32.851Z,98173.27
2018-09-10T23:17:01.366Z,98177.57
2018-09-10T23:19:29.971Z,98179.68
2018-09-10T23:21:58.659Z,98189.92
2018-09-10T23:24:27.143Z,98188.64
2018-09-10T23:26:55.683Z,98192.94
2018-09-10T23:29:24.158Z,98194.65
2018-09-10T23:31:52.755Z,98191.66
2018-09-10T23:34:21.305Z,98194.65
2018-09-10T23:36:50.183Z,98188.64
2018-09-10T23:39:18.681Z,98189.92
2018-09-10T23:41:47.254Z,98196.73
2018-09-10T23:44:15.786Z,98202.33
2018-09-10T23:46:44.396Z,98196.27
2018-09-10T23:49:12.976Z,98196.33
2018-09-10T23:51:41.485Z,98201.85
2018-09-10T23:54:10.274Z,98205.30
2018-09-10T23:56:39.038Z,98201.00
2018-09-10T23:59:07.651Z,98203.56
